Wild Rose, WI (54984)

7:25 AM CST on February 14, 2016 (GMT -0600)
Mt. Morris Township | | Change Station
CLOSE
Current Station
Personal Weather Station
Location: Wautoma, WI
Elevation: 912 ft
Nearby Weather Stations
Active Advisory: Special Statement

Elev 912 ft 44.08 °N, 89.21 °W | Updated 37 seconds ago

Mostly Cloudy
Mostly Cloudy
-15.9 °F
Feels Like -16 °F
N
0.0
Wind Variable Wind from NNE

Today
High -- | Low -- °F
--% Chance of Precip.
Yesterday
High -- | Low -- °F
Precip. -- in
Pressure 30.38 in
Visibility 10.0 miles
Clouds Clear
Windchill -16 °F
Dew Point -20 °F
Humidity 80%
Rainfall 0.00 in
Snow Depth Not available.
6:58 AM 5:24 PM
Waxing Crescent, 41% visible
METAR KY50 141256Z AUTO 00000KT 10SM CLR M27/M31 A3030 RMK AO2 TSNO T12661305 SLP285
Pressure 30.38 in
Visibility 10.0 miles
Clouds Clear
Windchill -16 °F
Dew Point -20 °F
Humidity 80%
Rainfall 0.00 in
Snow Depth Not available.
6:58 AM 5:24 PM
Waxing Crescent, 41% visible
METAR KY50 141256Z AUTO 00000KT 10SM CLR M27/M31 A3030 RMK AO2 TSNO T12661305 SLP285

10-Day Weather Forecast

Almanac

Astronomy

Feb. 14, 2016 Rise Set
Actual Time
Civil Twilight
Nautical Twilight
Astronomical Twilight
Moon
Length of Visible Light
Length of Day
Tomorrow will be .
, % of the Moon is Illuminated

Today's Extremes

State Highs State Lows

Community

WunderPhotos

Upload Photos

1,892,785 photos uploaded!

WunderBlog® & News

Nearby

Air Quality

  Air Quality AQ Index Pollutant
Not available.

Snow Depth

Station Depth Elevation

Earthquake Activity

City Distance Mag. Time & Date
Minimum magnitude displayed is 2.5.

Coastal Water Temperatures

Place Temperature

Stations

Nearby Weather Stations

Station Location Temp. Windchill Dew Point Humidity Wind Precip. Elev Updated Type
                   

Watches & Warnings

Special Statement
Issued: 4:18 AM CST Feb. 14, 2016 – National Weather Service

... Accumulating snow arriving this afternoon and tonight...

Light snow will develop across the region this afternoon and
early evening... then continue through the overnight hours.
Most places will receive 1 to 2 inches of snow... with local
higher amounts.

Snow covered roads and reduced visibilities will result in
locally hazardous travel conditions later today into tonight...
so those with travel plans should adjust them accordingly.



418 am CST sun Feb 14 2016

... Accumulating snow arriving this afternoon and tonight...

Light snow will develop across the region this afternoon and
early evening... then continue through the overnight hours.
Most places will receive 1 to 2 inches of snow... with local
higher amounts.

Snow covered roads and reduced visibilities will result in
locally hazardous travel conditions later today into tonight...
so those with travel plans should adjust them accordingly.